createdAt,value
2023-05-10T00:00:02.738Z,94128.00
2023-05-10T00:01:02.760Z,94128.00
2023-05-10T00:02:02.836Z,94126.00
2023-05-10T00:03:02.962Z,94126.00
2023-05-10T00:04:03.045Z,94128.00
2023-05-10T00:05:02.934Z,94126.00
2023-05-10T00:06:02.940Z,94118.00
2023-05-10T00:07:02.968Z,94126.00
2023-05-10T00:08:02.994Z,94118.00
2023-05-10T00:09:03.060Z,94118.00
2023-05-10T00:10:03.053Z,94126.00
2023-05-10T00:11:03.094Z,94126.00
2023-05-10T00:12:03.128Z,94126.00
2023-05-10T00:13:03.188Z,94126.00
2023-05-10T00:14:03.192Z,94128.00
2023-05-10T00:15:03.219Z,94126.00
2023-05-10T00:16:03.306Z,94126.00
2023-05-10T00:17:03.260Z,94126.00
2023-05-10T00:18:03.364Z,94126.00
2023-05-10T00:19:03.362Z,94126.00
2023-05-10T00:20:03.361Z,94126.00
2023-05-10T00:21:03.437Z,94128.00
2023-05-10T00:22:03.444Z,94126.00
2023-05-10T00:23:03.477Z,94126.00
2023-05-10T00:24:03.504Z,94118.00
2023-05-10T00:25:03.520Z,94126.00
2023-05-10T00:26:03.574Z,94118.00
2023-05-10T00:27:03.600Z,94118.00
2023-05-10T00:28:03.653Z,94126.00
2023-05-10T00:29:03.677Z,94126.00
2023-05-10T00:30:03.666Z,94118.00
2023-05-10T00:31:03.788Z,94128.00
2023-05-10T00:32:03.824Z,94126.00
2023-05-10T00:33:03.895Z,94128.00
2023-05-10T00:34:03.843Z,94128.00
2023-05-10T00:35:03.840Z,94128.00
2023-05-10T00:36:03.909Z,94126.00
2023-05-10T00:37:03.959Z,94128.00
2023-05-10T00:38:03.970Z,94128.00
2023-05-10T00:39:03.985Z,94126.00
2023-05-10T00:40:04.001Z,94128.00
2023-05-10T00:41:04.053Z,94126.00
2023-05-10T00:42:04.065Z,94128.00
2023-05-10T00:43:04.110Z,94126.00
2023-05-10T00:44:04.167Z,94128.00
2023-05-10T00:45:04.200Z,94126.00
2023-05-10T00:46:04.272Z,94118.00
2023-05-10T00:47:04.285Z,94118.00
2023-05-10T00:48:04.355Z,94118.00
2023-05-10T00:49:04.311Z,94116.00
2023-05-10T00:50:04.464Z,94116.00
2023-05-10T00:51:04.385Z,94116.00
2023-05-10T00:52:04.436Z,94114.00
2023-05-10T00:53:04.422Z,94116.00
2023-05-10T00:54:04.466Z,94116.00
2023-05-10T00:55:04.503Z,94116.00
2023-05-10T00:56:05.525Z,94110.00
2023-05-10T00:57:04.685Z,94110.00
2023-05-10T00:58:04.630Z,94116.00
2023-05-10T00:59:04.667Z,94108.00
2023-05-10T01:00:04.700Z,94108.00
2023-05-10T01:01:04.722Z,94108.00
2023-05-10T01:02:04.794Z,94114.00
2023-05-10T01:03:04.905Z,94108.00
2023-05-10T01:04:04.809Z,94108.00
2023-05-10T01:05:04.965Z,94108.00
2023-05-10T01:06:04.908Z,94106.00
2023-05-10T01:07:04.948Z,94104.00
2023-05-10T01:08:04.986Z,94106.00
2023-05-10T01:09:05.007Z,94104.00
2023-05-10T01:10:05.046Z,94103.00
2023-05-10T01:11:05.068Z,94104.00
2023-05-10T01:12:05.148Z,94104.00
2023-05-10T01:13:05.202Z,94104.00
2023-05-10T01:14:05.245Z,94104.00
2023-05-10T01:15:05.234Z,94106.00
2023-05-10T01:16:05.334Z,94106.00
2023-05-10T01:17:05.376Z,94106.00
2023-05-10T01:18:05.414Z,94103.00
2023-05-10T01:28:19.958Z,94103.00
2023-05-10T01:29:18.227Z,94106.00
2023-05-10T01:30:18.217Z,94108.00
2023-05-10T01:31:18.242Z,94110.00
2023-05-10T01:32:18.200Z,94108.00
2023-05-10T01:33:18.206Z,94106.00
2023-05-10T01:34:18.483Z,94108.00
2023-05-10T01:35:18.184Z,94110.00
2023-05-10T01:36:18.161Z,94106.00
2023-05-10T01:37:18.174Z,94110.00
2023-05-10T01:38:18.188Z,94108.00
2023-05-10T01:39:18.162Z,94110.00
2023-05-10T01:40:18.212Z,94110.00
2023-05-10T01:41:18.144Z,94114.00
2023-05-10T01:42:18.137Z,94114.00
2023-05-10T01:43:18.156Z,94116.00
2023-05-10T01:44:18.221Z,94116.00
2023-05-10T01:45:18.270Z,94116.00
2023-05-10T01:46:18.293Z,94118.00
2023-05-10T01:47:18.306Z,94128.00
2023-05-10T01:48:18.345Z,94118.00
2023-05-10T01:49:18.415Z,94126.00
2023-05-10T01:50:18.641Z,94130.00
2023-05-10T01:51:18.456Z,94130.00
2023-05-10T01:52:18.479Z,94130.00
2023-05-10T01:53:18.517Z,94136.00
2023-05-10T01:54:18.555Z,94132.00
2023-05-10T01:55:18.639Z,94136.00
2023-05-10T01:56:18.634Z,94138.00
2023-05-10T01:57:18.666Z,94138.00
2023-05-10T01:58:18.731Z,94138.00
2023-05-10T01:59:18.797Z,94140.00
2023-05-10T02:00:19.025Z,94142.00
2023-05-10T02:01:18.878Z,94142.00
2023-05-10T02:02:18.910Z,94142.00
2023-05-10T02:03:18.929Z,94142.00
2023-05-10T02:04:18.971Z,94144.00
2023-05-10T02:05:19.026Z,94146.00
2023-05-10T02:06:19.088Z,94146.00
2023-05-10T02:07:19.089Z,94148.00
2023-05-10T02:08:19.163Z,94148.00
2023-05-10T02:09:19.430Z,94149.00
2023-05-10T02:10:19.259Z,94151.00
2023-05-10T02:11:19.233Z,94151.00
2023-05-10T02:12:19.290Z,94153.00
2023-05-10T02:13:19.384Z,94153.00
2023-05-10T02:14:19.365Z,94155.00
2023-05-10T02:15:19.446Z,94157.00
2023-05-10T02:16:19.527Z,94155.00
2023-05-10T02:17:19.482Z,94159.00
2023-05-10T02:18:19.554Z,94157.00
2023-05-10T02:19:19.610Z,94159.00
2023-05-10T02:20:19.771Z,94159.00
2023-05-10T02:21:19.702Z,94159.00
2023-05-10T02:22:19.722Z,94161.00
2023-05-10T02:23:19.724Z,94159.00
2023-05-10T02:24:19.767Z,94161.00
2023-05-10T02:25:19.829Z,94159.00
2023-05-10T02:26:19.870Z,94161.00
2023-05-10T02:27:19.915Z,94161.00
2023-05-10T02:28:19.944Z,94159.00
2023-05-10T02:29:20.471Z,94161.00
2023-05-10T02:30:20.041Z,94161.00
2023-05-10T02:31:20.168Z,94161.00
2023-05-10T02:32:20.220Z,94161.00
2023-05-10T02:33:20.200Z,94163.00
2023-05-10T02:34:20.240Z,94165.00
2023-05-10T02:35:20.284Z,94163.00
2023-05-10T02:36:20.303Z,94163.00
2023-05-10T02:37:20.357Z,94163.00
2023-05-10T02:38:20.400Z,94163.00
2023-05-10T02:39:20.461Z,94163.00
2023-05-10T02:40:20.480Z,94163.00
2023-05-10T02:41:20.532Z,94165.00
2023-05-10T02:42:20.562Z,94163.00
2023-05-10T02:43:20.578Z,94163.00
2023-05-10T02:44:20.634Z,94165.00
2023-05-10T02:45:20.673Z,94163.00
2023-05-10T02:46:20.795Z,94165.00
2023-05-10T02:47:20.771Z,94165.00
2023-05-10T02:48:20.794Z,94163.00
2023-05-10T02:49:20.859Z,94163.00
2023-05-10T02:50:20.861Z,94165.00
2023-05-10T02:51:20.922Z,94163.00
2023-05-10T02:52:20.959Z,94165.00
2023-05-10T02:53:21.113Z,94163.00
2023-05-10T02:54:21.087Z,94161.00
2023-05-10T02:55:21.104Z,94161.00
2023-05-10T02:56:21.143Z,94161.00
2023-05-10T02:57:21.211Z,94159.00
2023-05-10T02:58:21.229Z,94159.00
2023-05-10T02:59:21.291Z,94157.00
2023-05-10T03:00:21.357Z,94157.00
2023-05-10T03:01:21.429Z,94155.00
2023-05-10T03:02:21.427Z,94157.00
2023-05-10T03:03:21.464Z,94153.00
2023-05-10T03:04:21.552Z,94157.00
2023-05-10T03:05:21.539Z,94155.00
2023-05-10T03:06:21.580Z,94157.00
2023-05-10T03:07:21.634Z,94155.00
2023-05-10T03:08:21.661Z,94155.00
2023-05-10T03:09:21.704Z,94157.00
2023-05-10T03:10:21.735Z,94157.00
2023-05-10T03:11:21.772Z,94157.00
2023-05-10T03:12:21.814Z,94157.00
2023-05-10T03:13:21.967Z,94157.00
2023-05-10T03:14:21.943Z,94157.00
2023-05-10T03:15:21.986Z,94157.00
2023-05-10T03:16:21.998Z,94159.00
2023-05-10T03:17:22.027Z,94161.00
2023-05-10T03:18:22.087Z,94163.00
2023-05-10T03:19:22.171Z,94165.00
2023-05-10T03:20:22.144Z,94165.00
2023-05-10T03:21:22.244Z,94167.00
2023-05-10T03:22:22.285Z,94163.00
2023-05-10T03:23:22.280Z,94167.00
2023-05-10T03:24:22.347Z,94167.00
2023-05-10T03:25:22.366Z,94169.00
2023-05-10T03:26:22.388Z,94171.00
2023-05-10T03:27:22.434Z,94171.00
2023-05-10T03:28:22.502Z,94171.00
2023-05-10T03:29:22.581Z,94173.00
2023-05-10T03:30:22.592Z,94169.00
2023-05-10T03:31:22.711Z,94171.00
2023-05-10T03:32:22.705Z,94173.00
2023-05-10T03:33:22.707Z,94175.00
2023-05-10T03:34:22.778Z,94179.00
2023-05-10T03:35:22.802Z,94177.00
2023-05-10T03:36:22.804Z,94177.00
2023-05-10T03:37:22.885Z,94181.00
2023-05-10T03:38:22.903Z,94181.00
2023-05-10T03:39:22.961Z,94183.00
2023-05-10T03:40:22.987Z,94185.00
2023-05-10T03:41:23.069Z,94187.00
2023-05-10T03:42:23.120Z,94189.00
2023-05-10T03:43:23.141Z,94191.00
2023-05-10T03:44:23.207Z,94191.00
2023-05-10T03:45:23.249Z,94191.00
2023-05-10T03:46:23.342Z,94193.00
2023-05-10T03:47:23.404Z,94193.00
2023-05-10T03:48:23.384Z,94195.00
2023-05-10T03:49:23.450Z,94195.00
2023-05-10T03:50:23.440Z,94193.00
2023-05-10T03:51:23.490Z,94195.00
2023-05-10T03:52:23.552Z,94195.00
2023-05-10T03:53:23.587Z,94195.00
2023-05-10T03:54:23.656Z,94196.00
2023-05-10T03:55:23.666Z,94198.00
2023-05-10T03:56:23.719Z,94196.00
2023-05-10T03:57:23.763Z,94202.00
2023-05-10T03:58:23.845Z,94198.00
2023-05-10T03:59:23.960Z,94200.00
2023-05-10T04:00:23.928Z,94198.00
2023-05-10T04:01:24.017Z,94196.00
2023-05-10T04:02:24.180Z,94198.00
2023-05-10T04:03:24.135Z,94196.00
2023-05-10T04:04:24.128Z,94195.00
2023-05-10T04:05:24.153Z,94196.00
2023-05-10T04:06:24.225Z,94195.00
2023-05-10T04:07:24.270Z,94191.00
2023-05-10T04:08:24.290Z,94191.00
2023-05-10T04:09:24.504Z,94193.00
2023-05-10T04:10:24.422Z,94195.00
2023-05-10T04:11:24.447Z,94195.00
2023-05-10T04:12:24.491Z,94195.00
2023-05-10T04:13:24.597Z,94193.00
2023-05-10T04:14:24.589Z,94193.00
2023-05-10T04:15:24.616Z,94193.00
2023-05-10T04:16:24.709Z,94193.00
2023-05-10T04:17:24.789Z,94193.00
2023-05-10T04:18:24.794Z,94193.00
2023-05-10T04:19:24.831Z,94196.00
2023-05-10T04:20:24.857Z,94196.00
2023-05-10T04:21:24.920Z,94195.00
2023-05-10T04:22:24.981Z,94193.00
2023-05-10T04:23:25.009Z,94191.00
2023-05-10T04:24:25.134Z,94193.00
2023-05-10T04:25:25.088Z,94193.00
2023-05-10T04:26:25.138Z,94193.00
2023-05-10T04:27:25.182Z,94195.00
2023-05-10T04:28:25.235Z,94195.00
2023-05-10T04:29:25.352Z,94191.00
2023-05-10T04:30:25.349Z,94195.00
2023-05-10T04:31:25.419Z,94193.00
2023-05-10T04:32:25.460Z,94193.00
2023-05-10T04:33:25.476Z,94193.00
2023-05-10T04:34:25.514Z,94195.00
2023-05-10T04:35:25.567Z,94193.00
2023-05-10T04:36:25.614Z,94195.00
2023-05-10T04:37:25.667Z,94193.00
2023-05-10T04:38:25.698Z,94193.00
2023-05-10T04:39:25.772Z,94193.00
2023-05-10T04:40:26.157Z,94195.00
2023-05-10T04:41:25.832Z,94193.00
2023-05-10T04:42:25.862Z,94196.00
2023-05-10T04:43:26.092Z,94198.00
2023-05-10T04:44:25.985Z,94198.00
2023-05-10T04:45:26.008Z,94202.00
2023-05-10T04:46:26.129Z,94202.00
2023-05-10T04:47:26.114Z,94200.00
2023-05-10T04:48:26.179Z,94200.00
2023-05-10T04:49:26.191Z,94200.00
2023-05-10T04:50:26.279Z,94200.00
2023-05-10T04:51:26.293Z,94200.00
2023-05-10T04:52:26.315Z,94204.00
2023-05-10T04:53:26.394Z,94204.00
2023-05-10T04:54:26.433Z,94204.00
2023-05-10T04:55:26.478Z,94204.00
2023-05-10T04:56:26.501Z,94206.00
2023-05-10T04:57:26.623Z,94206.00
2023-05-10T04:58:26.618Z,94212.00
2023-05-10T04:59:26.655Z,94212.00
2023-05-10T05:00:26.724Z,94216.00
2023-05-10T05:01:26.857Z,94216.00
2023-05-10T05:02:26.864Z,94218.00
2023-05-10T05:03:26.928Z,94218.00
2023-05-10T05:04:26.903Z,94220.00
2023-05-10T05:05:26.924Z,94222.00
2023-05-10T05:06:26.977Z,94220.00
2023-05-10T05:07:27.028Z,94222.00
2023-05-10T05:08:27.101Z,94224.00
2023-05-10T05:09:27.174Z,94226.00
2023-05-10T05:10:27.171Z,94228.00
2023-05-10T05:11:27.240Z,94230.00
2023-05-10T05:12:27.276Z,94232.00
2023-05-10T05:13:27.444Z,94232.00
2023-05-10T05:14:27.395Z,94232.00
2023-05-10T05:15:27.384Z,94232.00
2023-05-10T05:16:27.503Z,94236.00
2023-05-10T05:17:27.522Z,94234.00
2023-05-10T05:18:27.504Z,94234.00
2023-05-10T05:19:27.556Z,94238.00
2023-05-10T05:20:27.627Z,94238.00
2023-05-10T05:21:27.675Z,94238.00
2023-05-10T05:22:27.697Z,94238.00
2023-05-10T05:23:27.740Z,94240.00
2023-05-10T05:24:27.795Z,94238.00
2023-05-10T05:25:27.837Z,94240.00
2023-05-10T05:26:27.851Z,94240.00
2023-05-10T05:27:27.914Z,94238.00
2023-05-10T05:28:27.939Z,94238.00
2023-05-10T05:29:28.079Z,94238.00
2023-05-10T05:30:28.044Z,94238.00
2023-05-10T05:31:28.215Z,94243.00
2023-05-10T05:32:28.142Z,94243.00
2023-05-10T05:33:28.161Z,94245.00
2023-05-10T05:34:28.250Z,94243.00
2023-05-10T05:35:28.320Z,94245.00
2023-05-10T05:36:28.329Z,94245.00
2023-05-10T05:37:28.353Z,94243.00
2023-05-10T05:38:28.460Z,94245.00
2023-05-10T05:39:28.499Z,94243.00
2023-05-10T05:40:28.479Z,94247.00
2023-05-10T05:41:28.524Z,94247.00
2023-05-10T05:42:28.553Z,94253.00
2023-05-10T05:43:28.681Z,94253.00
2023-05-10T05:44:28.654Z,94253.00
2023-05-10T05:45:28.666Z,94251.00
2023-05-10T05:46:28.734Z,94253.00
2023-05-10T05:47:28.752Z,94253.00
2023-05-10T05:48:28.789Z,94255.00
2023-05-10T05:49:28.796Z,94255.00
2023-05-10T05:50:28.901Z,94255.00
2023-05-10T05:51:28.927Z,94255.00
2023-05-10T05:52:28.900Z,94251.00
2023-05-10T05:53:28.963Z,94251.00
2023-05-10T05:54:28.978Z,94247.00
2023-05-10T05:55:29.051Z,94247.00
2023-05-10T05:56:29.041Z,94249.00
2023-05-10T05:57:29.148Z,94249.00
2023-05-10T05:58:29.236Z,94251.00
2023-05-10T05:59:29.243Z,94249.00
2023-05-10T06:00:29.333Z,94251.00
2023-05-10T06:01:29.289Z,94249.00
2023-05-10T06:02:29.324Z,94253.00
2023-05-10T06:03:29.503Z,94251.00
2023-05-10T06:04:29.692Z,94251.00
2023-05-10T06:05:29.546Z,94249.00
2023-05-10T06:06:29.567Z,94253.00
2023-05-10T06:07:29.577Z,94253.00
2023-05-10T06:08:29.678Z,94253.00
2023-05-10T06:09:29.720Z,94257.00
2023-05-10T06:10:29.769Z,94257.00
2023-05-10T06:11:29.828Z,94255.00
2023-05-10T06:12:29.828Z,94255.00
2023-05-10T06:13:29.990Z,94257.00
2023-05-10T06:14:29.952Z,94257.00
2023-05-10T06:15:30.000Z,94255.00
2023-05-10T06:16:30.071Z,94257.00
2023-05-10T06:17:30.140Z,94255.00
2023-05-10T06:18:30.133Z,94261.00
2023-05-10T06:19:30.171Z,94263.00
2023-05-10T06:20:30.258Z,94261.00
2023-05-10T06:21:30.279Z,94263.00
2023-05-10T06:22:30.456Z,94263.00
2023-05-10T06:23:30.395Z,94263.00
2023-05-10T06:24:30.451Z,94261.00
2023-05-10T06:25:30.478Z,94263.00
2023-05-10T06:26:30.539Z,94265.00
2023-05-10T06:27:30.585Z,94261.00
2023-05-10T06:28:30.644Z,94263.00
2023-05-10T06:29:30.728Z,94265.00
2023-05-10T06:30:30.829Z,94265.00
2023-05-10T06:31:31.527Z,94265.00
2023-05-10T06:32:30.960Z,94267.00
2023-05-10T06:33:30.976Z,94265.00
2023-05-10T06:34:31.001Z,94267.00
2023-05-10T06:35:31.045Z,94265.00
2023-05-10T06:36:31.148Z,94251.00
2023-05-10T06:37:31.162Z,94265.00
2023-05-10T06:38:31.252Z,94267.00
2023-05-10T06:39:31.532Z,94265.00
2023-05-10T06:40:31.351Z,94263.00
2023-05-10T06:41:31.397Z,94265.00
2023-05-10T06:42:31.614Z,94265.00
2023-05-10T06:43:31.522Z,94267.00
2023-05-10T06:44:31.566Z,94269.00
2023-05-10T06:45:31.502Z,94269.00
2023-05-10T06:46:31.518Z,94267.00
2023-05-10T06:47:31.634Z,94267.00
2023-05-10T06:48:31.544Z,94265.00
2023-05-10T06:49:31.517Z,94263.00
2023-05-10T06:50:31.573Z,94263.00
2023-05-10T06:51:31.506Z,94263.00
2023-05-10T06:52:31.545Z,94265.00
2023-05-10T06:53:31.609Z,94263.00
2023-05-10T06:54:31.592Z,94259.00
2023-05-10T06:55:31.600Z,94259.00
2023-05-10T06:56:31.670Z,94263.00
2023-05-10T06:57:32.357Z,94263.00
2023-05-10T06:58:31.873Z,94263.00
2023-05-10T06:59:31.949Z,94259.00
2023-05-10T07:00:32.067Z,94259.00
2023-05-10T07:01:31.919Z,94257.00
2023-05-10T07:02:31.995Z,94263.00
2023-05-10T07:03:32.061Z,94263.00
2023-05-10T07:04:32.093Z,94263.00
2023-05-10T07:05:32.141Z,94261.00
2023-05-10T07:06:34.011Z,94259.00
2023-05-10T07:07:32.251Z,94259.00
2023-05-10T07:08:32.290Z,94259.00
2023-05-10T07:09:32.363Z,94261.00
2023-05-10T07:10:32.426Z,94259.00
2023-05-10T07:11:32.467Z,94259.00
2023-05-10T07:12:32.611Z,94257.00
2023-05-10T07:13:32.637Z,94261.00
2023-05-10T07:14:32.725Z,94263.00
2023-05-10T07:15:32.713Z,94261.00
2023-05-10T07:16:32.789Z,94261.00
2023-05-10T07:17:32.896Z,94261.00
2023-05-10T07:18:33.064Z,94263.00
2023-05-10T07:19:32.964Z,94259.00
2023-05-10T07:20:32.999Z,94263.00
2023-05-10T07:21:33.195Z,94263.00
2023-05-10T07:22:33.109Z,94265.00
2023-05-10T07:23:33.163Z,94265.00
2023-05-10T07:24:33.254Z,94265.00
2023-05-10T07:25:33.271Z,94267.00
2023-05-10T07:26:33.382Z,94267.00
2023-05-10T07:27:33.355Z,94265.00
2023-05-10T07:28:33.448Z,94269.00
2023-05-10T07:29:33.456Z,94267.00
2023-05-10T07:30:33.485Z,94267.00
2023-05-10T07:31:33.532Z,94265.00
2023-05-10T07:32:33.685Z,94267.00
2023-05-10T07:33:33.595Z,94267.00
2023-05-10T07:34:34.101Z,94265.00
2023-05-10T07:35:33.606Z,94269.00
2023-05-10T07:36:33.691Z,94267.00
2023-05-10T07:37:33.727Z,94267.00
2023-05-10T07:38:33.761Z,94265.00
2023-05-10T07:39:33.765Z,94265.00
2023-05-10T07:40:33.853Z,94267.00
2023-05-10T07:41:35.080Z,94269.00
2023-05-10T07:42:33.869Z,94267.00
2023-05-10T07:43:33.920Z,94269.00
2023-05-10T07:44:33.972Z,94269.00
2023-05-10T07:45:34.209Z,94269.00
2023-05-10T07:46:33.998Z,94269.00
2023-05-10T07:47:34.144Z,94269.00
2023-05-10T07:48:34.304Z,94269.00
2023-05-10T07:49:34.055Z,94269.00
2023-05-10T07:50:34.240Z,94273.00
2023-05-10T07:51:35.049Z,94277.00
2023-05-10T07:52:34.138Z,94275.00
2023-05-10T07:53:34.190Z,94275.00
2023-05-10T07:54:34.572Z,94275.00
2023-05-10T07:55:34.170Z,94275.00
2023-05-10T07:56:34.151Z,94273.00
2023-05-10T07:57:34.145Z,94275.00
2023-05-10T07:58:34.140Z,94277.00
2023-05-10T07:59:34.239Z,94275.00
2023-05-10T08:00:34.139Z,94275.00
2023-05-10T08:01:34.134Z,94273.00
2023-05-10T08:02:34.299Z,94275.00
2023-05-10T08:03:34.235Z,94273.00
2023-05-10T08:04:34.178Z,94275.00
2023-05-10T08:05:35.784Z,94275.00
2023-05-10T08:06:34.149Z,94275.00
2023-05-10T08:07:34.123Z,94275.00
2023-05-10T08:08:34.152Z,94275.00
2023-05-10T08:09:34.156Z,94277.00
2023-05-10T08:10:34.142Z,94281.00
2023-05-10T08:11:35.021Z,94277.00
2023-05-10T08:12:34.141Z,94279.00
2023-05-10T08:13:34.193Z,94281.00
2023-05-10T08:14:34.201Z,94279.00
2023-05-10T08:15:34.193Z,94283.00
2023-05-10T08:16:34.193Z,94283.00
2023-05-10T08:17:34.181Z,94283.00
2023-05-10T08:18:34.191Z,94283.00
2023-05-10T08:19:34.142Z,94281.00
2023-05-10T08:20:34.590Z,94285.00
2023-05-10T08:21:34.165Z,94285.00
2023-05-10T08:22:34.124Z,94283.00
2023-05-10T08:23:34.120Z,94283.00
2023-05-10T08:24:34.136Z,94283.00
2023-05-10T08:25:34.209Z,94283.00
2023-05-10T08:26:34.149Z,94287.00
2023-05-10T08:27:34.168Z,94287.00
2023-05-10T08:28:34.146Z,94289.00
2023-05-10T08:29:46.302Z,94287.00
2023-05-10T08:30:35.244Z,94287.00
2023-05-10T08:31:34.155Z,94287.00
2023-05-10T08:32:34.160Z,94287.00
2023-05-10T08:33:34.137Z,94285.00
2023-05-10T08:34:34.104Z,94285.00
2023-05-10T08:35:34.189Z,94287.00
2023-05-10T08:36:34.117Z,94287.00
2023-05-10T08:37:34.100Z,94287.00
2023-05-10T08:38:34.093Z,94289.00
2023-05-10T08:39:34.112Z,94291.00
2023-05-10T08:40:34.071Z,94291.00
2023-05-10T08:41:34.060Z,94285.00
2023-05-10T08:42:34.113Z,94287.00
2023-05-10T08:43:34.088Z,94289.00
2023-05-10T08:44:34.067Z,94295.00
2023-05-10T08:45:34.136Z,94295.00
2023-05-10T08:46:34.104Z,94293.00
2023-05-10T08:47:34.066Z,94293.00
2023-05-10T08:48:34.026Z,94295.00
2023-05-10T08:49:34.123Z,94297.00
2023-05-10T08:50:34.083Z,94295.00
2023-05-10T08:51:33.997Z,94297.00
2023-05-10T08:52:33.992Z,94298.00
2023-05-10T08:53:34.641Z,94298.00
2023-05-10T08:54:34.010Z,94300.00
2023-05-10T08:55:33.992Z,94298.00
2023-05-10T08:56:33.967Z,94300.00
2023-05-10T08:57:33.991Z,94302.00
2023-05-10T08:58:33.955Z,94302.00
2023-05-10T08:59:33.991Z,94306.00
2023-05-10T09:00:33.994Z,94304.00
2023-05-10T09:01:33.940Z,94306.00
2023-05-10T09:02:33.940Z,94308.00
2023-05-10T09:03:33.974Z,94306.00
2023-05-10T09:04:34.079Z,94306.00
2023-05-10T09:05:34.056Z,94306.00
2023-05-10T09:06:34.117Z,94306.00
2023-05-10T09:07:35.269Z,94304.00
2023-05-10T09:08:34.211Z,94308.00
2023-05-10T09:09:34.281Z,94308.00
2023-05-10T09:10:34.336Z,94308.00
2023-05-10T09:11:34.408Z,94308.00
2023-05-10T09:12:34.486Z,94310.00
2023-05-10T09:13:34.501Z,94314.00
2023-05-10T09:14:34.570Z,94318.00
2023-05-10T09:15:34.711Z,94318.00
2023-05-10T09:16:34.727Z,94320.00
2023-05-10T09:17:34.794Z,94320.00
2023-05-10T09:18:34.850Z,94322.00
2023-05-10T09:19:34.864Z,94320.00
2023-05-10T09:20:34.952Z,94324.00
2023-05-10T09:21:35.016Z,94324.00
2023-05-10T09:22:35.071Z,94324.00
2023-05-10T09:23:35.104Z,94324.00
2023-05-10T09:24:35.114Z,94326.00
2023-05-10T09:25:35.145Z,94324.00
2023-05-10T09:26:35.201Z,94328.00
2023-05-10T09:27:35.239Z,94328.00
2023-05-10T09:28:35.274Z,94328.00
2023-05-10T09:29:35.330Z,94328.00
2023-05-10T09:30:35.456Z,94328.00
2023-05-10T09:31:35.405Z,94332.00
2023-05-10T09:32:35.480Z,94332.00
2023-05-10T09:33:35.513Z,94330.00
2023-05-10T09:34:37.123Z,94334.00
2023-05-10T09:35:35.627Z,94324.00
2023-05-10T09:36:35.632Z,94328.00
2023-05-10T09:37:35.670Z,94328.00
2023-05-10T09:38:35.731Z,94324.00
2023-05-10T09:39:35.798Z,94326.00
2023-05-10T09:40:35.836Z,94326.00
2023-05-10T09:41:35.844Z,94326.00
2023-05-10T09:42:35.919Z,94324.00
2023-05-10T09:43:35.937Z,94326.00
2023-05-10T09:44:35.994Z,94328.00
2023-05-10T09:45:38.275Z,94322.00
2023-05-10T09:46:36.115Z,94324.00
2023-05-10T09:47:36.125Z,94328.00
2023-05-10T09:48:36.033Z,94324.00
2023-05-10T09:49:36.019Z,94328.00
2023-05-10T09:50:36.169Z,94328.00
2023-05-10T09:51:36.942Z,94328.00
2023-05-10T09:52:35.978Z,94330.00
2023-05-10T09:53:35.967Z,94328.00
2023-05-10T09:54:35.994Z,94328.00
2023-05-10T09:55:35.998Z,94324.00
2023-05-10T09:56:35.960Z,94326.00
2023-05-10T09:57:35.939Z,94328.00
2023-05-10T09:58:35.948Z,94324.00
2023-05-10T09:59:35.985Z,94322.00
2023-05-10T10:00:35.930Z,94322.00
2023-05-10T10:01:36.108Z,94324.00
2023-05-10T10:02:35.978Z,94322.00
2023-05-10T10:03:35.915Z,94324.00
2023-05-10T10:04:35.911Z,94324.00
2023-05-10T10:05:35.891Z,94322.00
2023-05-10T10:06:35.888Z,94320.00
2023-05-10T10:07:35.913Z,94320.00
2023-05-10T10:08:35.884Z,94320.00
2023-05-10T10:09:35.907Z,94320.00
2023-05-10T10:10:36.126Z,94318.00
2023-05-10T10:11:35.858Z,94320.00
2023-05-10T10:12:35.836Z,94320.00
2023-05-10T10:13:35.842Z,94318.00
2023-05-10T10:14:35.827Z,94320.00
2023-05-10T10:15:35.932Z,94320.00
2023-05-10T10:16:35.853Z,94322.00
2023-05-10T10:17:35.876Z,94326.00
2023-05-10T10:18:35.821Z,94330.00
2023-05-10T10:19:35.873Z,94330.00
2023-05-10T10:20:35.803Z,94330.00
2023-05-10T10:21:35.879Z,94326.00
2023-05-10T10:22:35.910Z,94328.00
2023-05-10T10:23:35.983Z,94326.00
2023-05-10T10:24:36.000Z,94326.00
2023-05-10T10:25:36.057Z,94330.00
2023-05-10T10:26:36.160Z,94326.00
2023-05-10T10:27:36.141Z,94330.00
2023-05-10T10:28:36.203Z,94326.00
2023-05-10T10:29:36.254Z,94330.00
2023-05-10T10:30:36.310Z,94332.00
2023-05-10T10:31:36.388Z,94332.00
2023-05-10T10:32:36.429Z,94332.00
2023-05-10T10:33:36.429Z,94326.00
2023-05-10T10:34:36.533Z,94330.00
2023-05-10T10:35:36.543Z,94330.00
2023-05-10T10:36:36.550Z,94330.00
2023-05-10T10:37:36.621Z,94332.00
2023-05-10T10:38:36.662Z,94328.00
2023-05-10T10:39:36.732Z,94330.00
2023-05-10T10:40:36.869Z,94330.00
2023-05-10T10:41:36.860Z,94328.00
2023-05-10T10:42:36.894Z,94328.00
2023-05-10T10:43:36.955Z,94326.00
2023-05-10T10:44:37.058Z,94328.00
2023-05-10T10:45:37.083Z,94330.00
2023-05-10T10:46:37.244Z,94326.00
2023-05-10T10:47:37.337Z,94328.00
2023-05-10T10:48:37.270Z,94332.00
2023-05-10T10:49:37.316Z,94330.00
2023-05-10T10:50:37.352Z,94330.00
2023-05-10T10:51:37.450Z,94332.00
2023-05-10T10:52:37.457Z,94326.00
2023-05-10T10:53:37.497Z,94326.00
2023-05-10T10:54:37.577Z,94328.00
2023-05-10T10:55:37.586Z,94324.00
2023-05-10T10:56:37.757Z,94326.00
2023-05-10T10:57:37.672Z,94328.00
2023-05-10T10:58:37.687Z,94326.00
2023-05-10T10:59:37.695Z,94330.00
2023-05-10T11:00:37.881Z,94328.00
2023-05-10T11:01:37.796Z,94334.00
2023-05-10T11:02:37.751Z,94330.00
2023-05-10T11:03:37.715Z,94332.00
2023-05-10T11:04:37.840Z,94330.00
2023-05-10T11:05:37.718Z,94328.00
2023-05-10T11:06:37.724Z,94328.00
2023-05-10T11:07:37.753Z,94326.00
2023-05-10T11:08:38.352Z,94326.00
2023-05-10T11:09:37.926Z,94324.00
2023-05-10T11:10:37.968Z,94328.00
2023-05-10T11:11:38.026Z,94328.00
2023-05-10T11:12:38.068Z,94326.00
2023-05-10T11:13:38.105Z,94326.00
2023-05-10T11:14:39.134Z,94326.00
2023-05-10T11:15:38.178Z,94326.00
2023-05-10T11:16:38.331Z,94324.00
2023-05-10T11:17:39.120Z,94324.00
2023-05-10T11:18:38.409Z,94322.00
2023-05-10T11:19:38.355Z,94322.00
2023-05-10T11:20:38.342Z,94324.00
2023-05-10T11:21:38.365Z,94326.00
2023-05-10T11:22:38.387Z,94324.00
2023-05-10T11:23:38.456Z,94324.00
2023-05-10T11:24:38.442Z,94324.00
2023-05-10T11:25:38.529Z,94326.00
2023-05-10T11:26:38.538Z,94326.00
2023-05-10T11:27:38.580Z,94328.00
2023-05-10T11:28:38.631Z,94330.00
2023-05-10T11:29:38.737Z,94324.00
2023-05-10T11:30:38.691Z,94326.00
2023-05-10T11:31:38.738Z,94326.00
2023-05-10T11:32:38.827Z,94326.00
2023-05-10T11:33:38.822Z,94326.00
2023-05-10T11:34:38.867Z,94326.00
2023-05-10T11:35:40.436Z,94326.00
2023-05-10T11:36:38.936Z,94328.00
2023-05-10T11:37:38.930Z,94326.00
2023-05-10T11:38:38.893Z,94324.00
2023-05-10T11:39:38.888Z,94326.00
2023-05-10T11:40:38.909Z,94322.00
2023-05-10T11:41:39.662Z,94324.00
2023-05-10T11:42:38.899Z,94322.00
2023-05-10T11:43:38.869Z,94324.00
2023-05-10T11:44:38.863Z,94326.00
2023-05-10T11:45:38.853Z,94328.00
2023-05-10T11:46:38.895Z,94330.00
2023-05-10T11:47:39.975Z,94330.00
2023-05-10T11:48:38.848Z,94330.00
2023-05-10T11:49:38.894Z,94328.00
2023-05-10T11:50:38.982Z,94330.00
2023-05-10T11:51:39.252Z,94330.00
2023-05-10T11:52:39.129Z,94328.00
2023-05-10T11:53:39.148Z,94330.00